METAR Data
IDs: Format: Raw Decoded Include TAF

Data at: 2008 UTC 26 Sep 2021

METAR for:KCDN (Camden/Woodward Fld, SC, US)
Text:KCDN 261955Z AUTO 27006G12KT 10SM SCT055 27/12 A3008 RMK AO2
Temperature: 27.0°C ( 81°F)
Dewpoint: 12.0°C ( 54°F) [RH = 39%]
Pressure (altimeter):30.08 inches Hg (1018.7 mb)
Winds:from the W (270 degrees) at 7 MPH (6 knots; 3.1 m/s) gusting to 14 MPH (12 knots; 6.2 m/s)
Visibility:10 or more sm (16+ km)
Ceiling:at least 12,000 feet AGL
Clouds: scattered clouds at 5500 feet AGL
QC Flag:automated observation with no human augmentation

TAF for:KCDN (Camden/Woodward Fld, SC, US)
Text:No data found